Terminal Aerodrome Forecast
Issued by NWS

Home | Current Version | Previous Version | Text Only | Print | Product List | Glossary On
Versions: 1 2 3 4 5 6 7 8 9 10 11 12 13 14
000
FTUS44 KMAF 020500
TAFCNM
TAF
KCNM 020532Z 0206/0306 22006KT P6SM SKC
     FM021500 27011KT P6SM FEW250
     FM021700 24021G30KT P6SM FEW250
     FM022100 24024G37KT P6SM SCT250
     FM030100 25015KT P6SM SCT250=

USA.gov is the U.S. government's official web portal to all federal, state and local government web resources and services.